Chesnee, South Carolina
Current Conditions -  °F | °C
As of 5:15 PM on Thursday 23 Oct 2014 (Local Time) from KEHO Reporting Station
Clear Clear  
Wind Chill: 68°   Ceiling: Unl
Heat Index: 68°   Visibility: 10mi
Dew Point: 38°   Wind: 3mph
Humidity: 33%   Direction: 250°WSW
Pressure: 29.99"   Gusts: NA
Location:  35.15°N, 81.86°W
Report Text: KEHO 232115Z AUTO 25003KT 10SM CLR 20/04 A2999 RMK AO2 T02010035
Loading
Personal Weather Stations






























Interactive Weather Map
Tropical Storm Tracking
New forecast layout! Learn more

10-Day Weather Forecast

Advertisements
Track Severe Weather on mobile